Historyczne dane pomiarowe

Dodano dane terminowe – wersja testowa.

Dane z okresu 1951-2019

Wersja bazy: 1.34 [2019-03-16, lista zmian], aktualizacja planowana na 2019-04-15

Dane meteo z obszaru Polski uzyskane na podstawie danych udostępnionych przez Instytut Meteorologii i Gospodarki Wodnej – Państwowy Instytut Badawczy.

 

Wybierz Datę:    

       

TemperaturaWilgotnośćWiatrCiśnienieOpadyŚniegCzas trwania zjawisk
 Stacja t tx tn tng RH VA  wxwx mslp ppp RRR   cm mm wxwxwxwxwxwxwx
1999-08-14 15.4 20.4 10.0 7.4 78.0- 3.7 2.0---- 0.0------------
1999-08-13 15.1 21.4 7.3 5.0 78.8- 6.3 1.3---- 0.0------------
1999-08-12 18.4 20.9 16.5 15.7 83.8- 5.3 1.7---- 0.0------------
1999-08-11 20.7 23.2 18.9 18.0 86.0- 2.3 3.0---- 0.0------------
1999-08-10 21.3 28.0 17.4 17.2 74.8- 5.0 3.7---- 10.1------------
1999-08-09 24.4 31.8 16.8 14.6 67.3- 1.0 3.0---- 63.2------------
1999-08-08 22.0 27.3 14.8 13.5 77.5- 2.0 3.0---- 0.0------------
1999-08-07 20.4 27.6 12.6 9.8 73.8- 4.0 2.7---- 0.0------------
1999-08-06 19.0 22.5 13.7 11.6 81.8- 5.0 2.3---- 0.0------------
1999-08-05 20.0 26.8 14.3 12.1 82.3- 3.7 2.0---- 0.0------------
1999-08-04 17.6 22.1 14.0 12.8 87.0- 5.0 2.7---- 0.0------------
1999-08-03 17.1 20.6 13.8 12.6 92.8- 7.3 3.0---- 0.0------------
1999-08-02 17.1 20.9 14.3 14.5 93.5- 7.7 2.3---- 2.1------------
1999-08-01 18.4 23.5 13.7 13.6 80.8- 5.3 4.0---- 1.1------------
1999-07-31 17.4 25.2 10.8 7.0 78.8- 3.3 3.0---- 0.0------------
1999-07-30 18.2 23.8 11.8 8.8 82.5- 2.0 4.7---- 0.0------------
1999-07-29 17.0 22.8 11.8 8.6 85.0- 1.0 3.3---- 0.0------------
1999-07-28 17.9 22.5 14.6 15.2 93.5- 7.3 3.0---- 24.1------------
1999-07-27 20.1 25.2 16.8 14.3 79.8- 4.7 3.0---- 0.0------------
1999-07-26 20.5 27.1 17.7 16.6 77.8- 2.3 2.7---- 0.0------------
1999-07-25 18.4 25.0 12.6 9.0 75.0- 1.7 2.0---- 1.1------------
1999-07-24 17.8 24.0 8.6 7.6 81.8- 5.3 1.7---- 0.0------------
1999-07-23 17.5 21.7 15.6 15.6 89.5- 7.7 3.0---- 12.1------------
1999-07-22 22.0 28.3 15.9 14.2 75.8- 5.0 4.0---- 0.0------------
1999-07-21 22.9 30.5 14.9 10.0 75.5- 3.3 3.0---- 0.0------------
1999-07-20 22.3 28.4 14.6 11.8 75.5- 0.7 3.3---- 0.0------------
1999-07-19 19.0 27.2 11.7 8.6 79.5- 4.7 3.3---- 0.4------------
1999-07-18 18.4 24.8 10.7 7.0 75.5- 1.7 2.0---- 0.0------------
1999-07-17 17.5 24.2 9.3 5.9 77.8- 2.0 3.3---- 0.0------------
1999-07-16 16.4 21.8 9.3 6.3 80.5- 1.7 2.0---- 0.0------------
1999-07-15 18.4 24.0 15.3 15.9 90.8- 7.3 3.0---- 12.8------------
1999-07-14 23.0 29.4 17.0 14.6 74.3- 5.7 3.0---- 0.0------------
1999-07-13 22.1 28.3 15.5 12.1 69.8- 3.7 2.3---- 0.0------------
1999-07-12 21.6 28.2 14.2 11.5 72.5- 3.7 3.0---- 0.0------------
1999-07-11 20.4 26.2 13.4 11.6 66.3- 1.3 3.3---- 0.0------------
1999-07-10 19.5 23.9 15.4 12.4 74.0- 2.7 3.3---- 0.0------------
1999-07-09 21.4 27.2 16.5 14.6 83.8- 5.0 2.7---- 0.0------------
1999-07-08 22.1 28.7 17.7 14.8 84.0- 7.3 2.3---- 5.5------------
1999-07-07 24.5 30.5 19.3 16.8 76.8- 4.0 1.0---- 2.4------------
1999-07-06 24.8 31.5 16.7 12.9 73.3- 1.0 1.3---- 0.0------------
1999-07-05 23.7 30.0 15.3 12.5 78.0- 0.0 2.3---- 0.0------------
1999-07-04 22.1 27.8 14.5 10.8 77.3- 0.3 2.3---- 0.0------------
1999-07-03 20.7 25.3 14.3 11.3 82.3- 2.7 2.3---- 0.0------------
1999-07-02 19.9 25.8 15.9 13.7 83.8- 3.7 2.3---- 0.0------------
1999-07-01 20.6 25.5 15.4 12.6 83.0- 6.3 2.7---- 26.1------------
1999-06-30 20.5 25.8 14.2 11.3 70.0- 1.0 3.7---- 0.0------------
1999-06-29 20.2 25.1 15.2 12.0 72.8- 2.0 4.0---- 0.0------------
1999-06-28 20.8 27.8 10.3 7.5 75.3- 1.7 2.3---- 0.0------------
1999-06-27 18.4 24.4 9.0 6.0 75.8- 0.0 2.3---- 0.0------------
1999-06-26 15.5 21.9 6.6 3.3 84.5- 1.0 2.3---- 0.0------------
1999-06-25 14.1 17.3 10.6 8.8 84.5- 7.3 3.7---- 1.1------------
1999-06-24 12.0 13.3 11.0 10.8 88.0- 7.7 3.3---- 2.1------------
1999-06-23 14.4 18.7 12.8 13.0 79.5- 8.0 2.7---- 1.1------------
1999-06-22 19.6 23.9 15.5 13.7 78.0- 4.7 4.0---- 2.4------------
1999-06-21 19.5 24.7 15.3 13.2 87.5- 5.7 2.7---- 6.9------------
1999-06-20 20.5 25.3 14.3 12.2 78.5- 1.0 2.3---- 0.0------------
1999-06-19 21.6 26.7 15.1 13.5 77.3- 4.0 3.0---- 2.8------------
1999-06-18 20.7 27.3 15.1 13.7 83.8- 3.0 3.3---- 1.4------------
1999-06-17 20.5 25.6 15.8 13.6 87.5- 6.7 3.0---- 9.0------------
1999-06-16 19.8 25.4 16.1 14.8 87.0- 6.0 2.3---- 5.4------------
316.7 ms

 

Źródłem pochodzenia danych jest Instytut Meteorologii i Gospodarki Wodnej – Państwowy Instytut Badawczy. Dane Instytutu Meteorologii i Gospodarki Wodnej – Państwowego Instytutu Badawczego zostały przetworzone.

Dane źródłowe można odnaleźć na stronie https://dane.imgw.pl